createdAt,value
2018-10-18T00:01:45.572Z,7.10
2018-10-18T00:04:14.511Z,7.50
2018-10-18T00:06:43.471Z,7.87
2018-10-18T00:09:12.896Z,7.00
2018-10-18T00:11:41.917Z,7.83
2018-10-18T00:14:10.906Z,7.07
2018-10-18T00:16:39.812Z,7.13
2018-10-18T00:19:08.843Z,7.90
2018-10-18T00:21:37.775Z,7.07
2018-10-18T00:24:06.869Z,7.23
2018-10-18T00:26:35.720Z,8.07
2018-10-18T00:29:04.688Z,7.67
2018-10-18T00:31:33.647Z,7.93
2018-10-18T00:34:02.621Z,7.90
2018-10-18T00:36:31.568Z,7.67
2018-10-18T00:39:00.539Z,7.73
2018-10-18T00:41:29.479Z,8.40
2018-10-18T00:43:58.525Z,8.17
2018-10-18T00:46:27.561Z,7.90
2018-10-18T00:48:56.499Z,8.07
2018-10-18T00:51:25.435Z,7.67
2018-10-18T00:53:54.408Z,8.27
2018-10-18T00:56:23.345Z,9.03
2018-10-18T00:58:52.369Z,8.60
2018-10-18T01:01:21.434Z,8.70
2018-10-18T01:03:50.375Z,8.30
2018-10-18T01:06:19.480Z,8.97
2018-10-18T01:08:48.650Z,9.70
2018-10-18T01:11:17.612Z,10.58
2018-10-18T01:13:46.608Z,11.57
2018-10-18T01:16:15.736Z,11.57
2018-10-18T01:18:44.718Z,9.63
2018-10-18T01:21:13.711Z,9.60
2018-10-18T01:23:42.653Z,10.00
2018-10-18T01:26:11.707Z,10.03
2018-10-18T01:28:40.540Z,9.20
2018-10-18T01:31:09.522Z,12.03
2018-10-18T01:33:38.437Z,10.23
2018-10-18T01:36:07.448Z,9.53
2018-10-18T01:38:36.365Z,10.27
2018-10-18T01:41:05.358Z,10.47
2018-10-18T01:43:34.311Z,9.77
2018-10-18T01:46:03.677Z,10.47
2018-10-18T01:48:32.648Z,10.23
2018-10-18T01:51:01.634Z,9.93
2018-10-18T01:53:30.846Z,12.07
2018-10-18T01:55:59.812Z,11.07
2018-10-18T01:58:28.744Z,11.10
2018-10-18T02:00:57.687Z,9.93
2018-10-18T02:03:26.641Z,9.73
2018-10-18T02:05:55.645Z,9.33
2018-10-18T02:08:24.539Z,8.83
2018-10-18T02:10:53.508Z,9.23
2018-10-18T02:13:22.422Z,9.40
2018-10-18T02:15:51.394Z,9.87
2018-10-18T02:18:20.415Z,8.70
2018-10-18T02:20:49.323Z,8.77
2018-10-18T02:23:18.212Z,9.17
2018-10-18T02:25:47.182Z,9.70
2018-10-18T02:28:16.143Z,8.27
2018-10-18T02:30:45.093Z,9.07
2018-10-18T02:33:14.077Z,8.97
2018-10-18T02:35:43.018Z,9.30
2018-10-18T02:38:12.074Z,8.87
2018-10-18T02:40:40.978Z,9.23
2018-10-18T02:43:09.921Z,8.93
2018-10-18T02:45:38.863Z,8.83
2018-10-18T02:48:07.854Z,8.80
2018-10-18T02:50:36.759Z,9.47
2018-10-18T02:53:05.762Z,9.00
2018-10-18T02:55:34.693Z,9.37
2018-10-18T02:58:03.803Z,10.32
2018-10-18T03:00:32.725Z,8.57
2018-10-18T03:03:01.671Z,8.13
2018-10-18T03:05:30.572Z,8.93
2018-10-18T03:07:59.511Z,7.60
2018-10-18T03:10:28.456Z,8.93
2018-10-18T03:12:57.367Z,7.77
2018-10-18T03:15:26.314Z,8.23
2018-10-18T03:17:55.332Z,7.90
2018-10-18T03:20:24.219Z,8.90
2018-10-18T03:22:53.129Z,8.20
2018-10-18T03:25:22.061Z,8.70
2018-10-18T03:27:51.000Z,8.97
2018-10-18T03:30:20.026Z,8.27
2018-10-18T03:32:48.878Z,7.90
2018-10-18T03:35:17.829Z,9.70
2018-10-18T03:37:46.788Z,7.30
2018-10-18T03:40:15.727Z,9.23
2018-10-18T03:42:44.647Z,7.27
2018-10-18T03:45:13.593Z,7.47
2018-10-18T03:47:42.553Z,7.70
2018-10-18T03:50:11.469Z,7.80
2018-10-18T03:52:40.411Z,7.60
2018-10-18T03:55:09.403Z,7.70
2018-10-18T03:57:38.313Z,7.43
2018-10-18T04:00:07.950Z,7.60
2018-10-18T04:02:36.888Z,7.50
2018-10-18T04:05:06.739Z,8.83
2018-10-18T04:07:35.653Z,9.40
2018-10-18T04:10:04.642Z,9.50
2018-10-18T04:12:33.720Z,8.67
2018-10-18T04:15:02.610Z,9.53
2018-10-18T04:17:31.652Z,10.07
2018-10-18T04:20:00.608Z,8.80
2018-10-18T04:22:29.634Z,10.00
2018-10-18T04:24:58.542Z,9.93
2018-10-18T04:27:27.493Z,9.80
2018-10-18T04:29:56.466Z,10.27
2018-10-18T04:32:25.393Z,10.43
2018-10-18T04:34:54.344Z,10.50
2018-10-18T04:37:23.317Z,10.00
2018-10-18T04:39:52.268Z,10.83
2018-10-18T04:42:21.266Z,11.10
2018-10-18T04:44:50.277Z,11.27
2018-10-18T04:47:19.478Z,15.63
2018-10-18T04:49:48.240Z,13.57
2018-10-18T04:52:17.236Z,13.43
2018-10-18T04:54:46.229Z,13.67
2018-10-18T04:57:15.196Z,17.55
2018-10-18T04:59:44.136Z,15.13
2018-10-18T05:02:13.104Z,15.47
2018-10-18T05:05:19.245Z,14.37
2018-10-18T05:07:48.303Z,15.20
2018-10-18T05:10:17.277Z,15.17
2018-10-18T05:12:46.405Z,14.73
2018-10-18T05:15:15.232Z,15.63
2018-10-18T05:17:44.202Z,15.33
2018-10-18T05:20:13.220Z,20.10
2018-10-18T05:22:42.233Z,16.60
2018-10-18T05:25:11.341Z,16.53
2018-10-18T05:27:40.189Z,16.57
2018-10-18T05:30:09.527Z,16.07
2018-10-18T05:32:38.470Z,16.80
2018-10-18T05:35:07.465Z,15.70
2018-10-18T05:37:36.428Z,16.77
2018-10-18T05:40:05.388Z,16.77
2018-10-18T05:42:34.344Z,15.83
2018-10-18T05:45:03.267Z,15.50
2018-10-18T05:47:32.197Z,16.20
2018-10-18T05:50:01.161Z,19.98
2018-10-18T05:52:30.135Z,15.17
2018-10-18T05:54:59.163Z,14.27
2018-10-18T05:57:28.152Z,19.40
2018-10-18T05:59:57.106Z,18.95
2018-10-18T06:02:26.067Z,16.10
2018-10-18T06:04:55.020Z,14.70
2018-10-18T06:07:23.973Z,14.27
2018-10-18T06:09:53.000Z,14.17
2018-10-18T06:12:21.898Z,14.97
2018-10-18T06:14:50.852Z,14.40
2018-10-18T06:17:19.834Z,14.33
2018-10-18T06:19:48.736Z,14.73
2018-10-18T06:22:17.707Z,15.27
2018-10-18T06:24:46.618Z,14.40
2018-10-18T06:27:15.586Z,14.27
2018-10-18T06:29:44.522Z,14.17
2018-10-18T06:32:13.477Z,14.17
2018-10-18T06:34:42.383Z,15.67
2018-10-18T06:37:11.449Z,15.37
2018-10-18T06:39:40.288Z,15.27
2018-10-18T06:42:09.292Z,18.65
2018-10-18T06:44:38.288Z,15.63
2018-10-18T06:47:07.493Z,15.13
2018-10-18T06:49:36.599Z,14.43
2018-10-18T06:52:05.769Z,13.80
2018-10-18T06:54:34.670Z,13.00
2018-10-18T06:57:03.622Z,12.23
2018-10-18T06:59:32.616Z,12.87
2018-10-18T07:02:01.536Z,12.80
2018-10-18T07:04:30.477Z,12.90
2018-10-18T07:06:59.441Z,12.53
2018-10-18T07:09:28.411Z,11.73
2018-10-18T07:11:57.415Z,14.78
2018-10-18T07:14:26.321Z,14.00
2018-10-18T07:16:55.289Z,12.43
2018-10-18T07:19:24.223Z,12.47
2018-10-18T07:21:53.185Z,11.33
2018-10-18T07:24:22.128Z,11.13
2018-10-18T07:26:51.119Z,9.97
2018-10-18T07:29:20.065Z,8.67
2018-10-18T07:31:49.000Z,8.60
2018-10-18T07:34:17.971Z,10.13
2018-10-18T07:36:46.905Z,7.67
2018-10-18T07:39:15.857Z,6.20
2018-10-18T07:41:45.028Z,6.53
2018-10-18T07:44:13.988Z,6.13
2018-10-18T07:46:42.947Z,5.93
2018-10-18T07:49:11.875Z,6.20
2018-10-18T07:51:40.795Z,5.87
2018-10-18T07:54:09.831Z,6.20
2018-10-18T07:56:38.723Z,5.70
2018-10-18T07:59:08.081Z,5.90
2018-10-18T08:01:36.913Z,5.97
2018-10-18T08:04:06.498Z,6.27
2018-10-18T08:06:35.444Z,5.67
2018-10-18T08:09:06.485Z,5.73
2018-10-18T08:11:35.447Z,5.50
2018-10-18T08:14:04.461Z,4.80
2018-10-18T08:16:33.390Z,5.03
2018-10-18T08:19:02.640Z,4.67
2018-10-18T08:21:31.693Z,6.20
2018-10-18T08:24:00.612Z,5.27
2018-10-18T08:26:29.559Z,4.53
2018-10-18T08:28:58.600Z,4.67
2018-10-18T08:31:27.751Z,5.70
2018-10-18T08:33:56.477Z,5.17
2018-10-18T08:36:25.472Z,4.50
2018-10-18T08:38:54.384Z,4.90
2018-10-18T08:41:23.338Z,4.53
2018-10-18T08:43:52.271Z,5.20
2018-10-18T08:46:21.239Z,4.47
2018-10-18T08:48:50.154Z,4.77
2018-10-18T08:51:19.302Z,4.00
2018-10-18T08:53:48.239Z,4.43
2018-10-18T08:56:17.168Z,5.05
2018-10-18T08:58:46.178Z,4.30
2018-10-18T09:01:15.235Z,4.40
2018-10-18T09:03:44.109Z,4.13
2018-10-18T09:06:13.060Z,4.57
2018-10-18T09:08:42.007Z,4.20
2018-10-18T09:11:10.932Z,4.50
2018-10-18T09:13:39.871Z,3.73
2018-10-18T09:16:08.991Z,3.63
2018-10-18T09:18:37.856Z,4.60
2018-10-18T09:21:06.893Z,4.43
2018-10-18T09:23:35.899Z,4.53
2018-10-18T09:26:04.847Z,3.87
2018-10-18T09:28:33.777Z,4.07
2018-10-18T09:31:02.769Z,3.87
2018-10-18T09:33:31.625Z,3.73
2018-10-18T09:36:00.583Z,3.70
2018-10-18T09:38:29.616Z,4.53
2018-10-18T09:40:58.481Z,3.93
2018-10-18T09:43:27.398Z,3.53
2018-10-18T09:45:56.341Z,4.03
2018-10-18T09:48:25.256Z,4.70
2018-10-18T09:50:54.213Z,4.13
2018-10-18T09:53:23.378Z,4.17
2018-10-18T09:55:52.362Z,4.47
2018-10-18T09:58:21.284Z,4.47
2018-10-18T10:01:07.927Z,3.80
2018-10-18T10:03:36.806Z,3.87
2018-10-18T10:06:06.500Z,4.27
2018-10-18T10:08:35.456Z,3.50
2018-10-18T10:11:04.431Z,3.90
2018-10-18T10:13:33.455Z,3.43
2018-10-18T10:16:02.338Z,4.00
2018-10-18T10:18:31.269Z,4.55
2018-10-18T10:21:00.217Z,4.07
2018-10-18T10:23:29.176Z,4.28
2018-10-18T10:25:58.082Z,3.83
2018-10-18T10:28:27.045Z,3.77
2018-10-18T10:30:56.014Z,3.65
2018-10-18T10:33:24.954Z,3.45
2018-10-18T10:35:53.808Z,3.58
2018-10-18T10:38:22.770Z,4.10
2018-10-18T10:40:51.706Z,4.20
2018-10-18T10:43:20.662Z,4.40
2018-10-18T10:45:49.634Z,3.62
2018-10-18T10:48:18.660Z,3.72
2018-10-18T10:50:47.435Z,4.28
2018-10-18T10:53:16.382Z,3.52
2018-10-18T10:55:45.362Z,3.72
2018-10-18T10:58:14.351Z,3.80
2018-10-18T11:01:04.633Z,3.33
2018-10-18T11:03:33.615Z,3.70
2018-10-18T11:06:02.721Z,3.90
2018-10-18T11:08:31.501Z,4.10
2018-10-18T11:11:00.570Z,3.83
2018-10-18T11:13:30.102Z,3.62
2018-10-18T11:16:00.348Z,3.47
2018-10-18T11:18:29.521Z,3.65
2018-10-18T11:20:58.499Z,3.75
2018-10-18T11:23:27.398Z,4.10
2018-10-18T11:25:56.369Z,3.20
2018-10-18T11:28:25.272Z,2.77
2018-10-18T11:30:54.226Z,2.95
2018-10-18T11:33:23.170Z,3.08
2018-10-18T11:35:52.134Z,3.75
2018-10-18T11:38:21.030Z,3.40
2018-10-18T11:40:49.981Z,2.85
2018-10-18T11:43:18.912Z,3.45
2018-10-18T11:45:47.861Z,3.00
2018-10-18T11:48:17.059Z,3.15
2018-10-18T11:50:46.020Z,2.90
2018-10-18T11:53:14.955Z,3.30
2018-10-18T11:55:43.934Z,3.95
2018-10-18T11:58:13.400Z,2.87
2018-10-18T12:00:42.335Z,3.23
2018-10-18T12:03:11.417Z,3.27
2018-10-18T12:05:40.326Z,3.23
2018-10-18T12:08:09.342Z,2.50
2018-10-18T12:10:38.226Z,3.30
2018-10-18T12:13:07.441Z,3.05
2018-10-18T12:15:36.308Z,3.07
2018-10-18T12:18:05.541Z,3.30
2018-10-18T12:20:34.500Z,2.97
2018-10-18T12:23:03.450Z,2.53
2018-10-18T12:25:32.314Z,2.85
2018-10-18T12:28:01.308Z,2.70
2018-10-18T12:30:30.247Z,2.40
2018-10-18T12:32:59.215Z,2.90
2018-10-18T12:35:28.143Z,3.03
2018-10-18T12:37:57.139Z,3.45
2018-10-18T12:40:26.101Z,3.15
2018-10-18T12:42:54.935Z,2.75
2018-10-18T12:45:23.873Z,3.12
2018-10-18T12:47:52.839Z,3.00
2018-10-18T12:50:21.730Z,2.55
2018-10-18T12:52:50.665Z,2.65
2018-10-18T12:55:19.616Z,3.07
2018-10-18T12:57:48.548Z,2.83
2018-10-18T13:00:17.653Z,2.95
2018-10-18T13:02:46.442Z,2.33
2018-10-18T13:05:15.382Z,2.98
2018-10-18T13:07:44.344Z,2.47
2018-10-18T13:10:13.388Z,2.93
2018-10-18T13:12:42.425Z,2.67
2018-10-18T13:15:12.003Z,2.45
2018-10-18T13:17:40.959Z,3.45
2018-10-18T13:20:10.831Z,2.90
2018-10-18T13:22:39.990Z,2.52
2018-10-18T13:25:10.457Z,3.00
2018-10-18T13:27:39.511Z,2.62
2018-10-18T13:30:09.785Z,2.98
2018-10-18T13:32:39.369Z,2.87
2018-10-18T13:35:08.947Z,2.27
2018-10-18T13:37:38.007Z,2.47
2018-10-18T13:40:07.904Z,2.07
2018-10-18T13:42:37.959Z,2.52
2018-10-18T13:45:07.906Z,2.60
2018-10-18T13:47:39.936Z,2.37
2018-10-18T13:50:09.654Z,2.30
2018-10-18T13:52:39.165Z,2.58
2018-10-18T13:55:08.191Z,2.60
2018-10-18T13:57:37.124Z,2.08
2018-10-18T14:00:29.594Z,2.53
2018-10-18T14:02:58.584Z,1.80
2018-10-18T14:05:28.020Z,2.37
2018-10-18T14:07:57.483Z,2.50
2018-10-18T14:10:26.357Z,2.43
2018-10-18T14:12:55.365Z,2.15
2018-10-18T14:15:27.778Z,2.27
2018-10-18T14:17:57.456Z,2.40
2018-10-18T14:20:27.335Z,2.67
2018-10-18T14:22:57.161Z,2.53
2018-10-18T14:25:26.980Z,2.17
2018-10-18T14:27:56.505Z,2.63
2018-10-18T14:30:26.146Z,1.97
2018-10-18T14:32:55.652Z,2.27
2018-10-18T14:35:25.321Z,2.40
2018-10-18T14:37:55.185Z,2.17
2018-10-18T14:40:24.247Z,2.23
2018-10-18T14:42:54.283Z,2.00
2018-10-18T14:45:23.761Z,2.30
2018-10-18T14:47:56.860Z,1.90
2018-10-18T14:50:26.469Z,2.30
2018-10-18T14:52:56.199Z,2.10
2018-10-18T14:55:25.646Z,2.30
2018-10-18T14:57:55.248Z,2.03
2018-10-18T15:00:24.615Z,2.10
2018-10-18T15:02:56.780Z,1.83
2018-10-18T15:05:27.103Z,1.80
2018-10-18T15:07:58.895Z,2.10
2018-10-18T15:10:30.916Z,2.17
2018-10-18T15:13:03.051Z,1.90
2018-10-18T15:15:33.024Z,1.93
2018-10-18T15:18:02.334Z,1.60
2018-10-18T15:20:31.902Z,2.00
2018-10-18T15:23:01.398Z,2.07
2018-10-18T15:25:31.112Z,1.90
2018-10-18T15:28:02.418Z,2.00
2018-10-18T15:30:31.333Z,2.13
2018-10-18T15:33:00.351Z,1.77
2018-10-18T15:35:29.217Z,1.90
2018-10-18T15:37:58.230Z,2.17
2018-10-18T15:40:27.097Z,1.70
2018-10-18T15:42:56.076Z,2.20
2018-10-18T15:45:24.981Z,1.93
2018-10-18T15:47:53.965Z,1.87
2018-10-18T15:50:22.895Z,1.97
2018-10-18T15:52:51.818Z,1.80
2018-10-18T15:55:20.763Z,2.07
2018-10-18T15:57:49.732Z,2.20
2018-10-18T16:00:18.761Z,2.20
2018-10-18T16:02:47.580Z,1.93
2018-10-18T16:05:16.658Z,1.97
2018-10-18T16:07:45.461Z,2.40
2018-10-18T16:10:14.412Z,2.17
2018-10-18T16:12:43.345Z,1.80
2018-10-18T16:15:12.297Z,1.80
2018-10-18T16:17:41.415Z,2.10
2018-10-18T16:20:10.765Z,2.10
2018-10-18T16:22:40.161Z,1.67
2018-10-18T16:25:10.787Z,1.83
2018-10-18T16:27:39.963Z,1.70
2018-10-18T16:30:09.056Z,1.70
2018-10-18T16:32:38.363Z,1.70
2018-10-18T16:35:08.219Z,2.00
2018-10-18T16:37:37.058Z,1.70
2018-10-18T16:40:06.626Z,1.80
2018-10-18T16:42:35.555Z,1.90
2018-10-18T16:45:05.017Z,2.20
2018-10-18T16:47:34.068Z,1.63
2018-10-18T16:50:02.966Z,1.50
2018-10-18T16:52:31.910Z,1.90
2018-10-18T16:55:00.901Z,1.83
2018-10-18T16:57:29.908Z,1.73
2018-10-18T16:59:58.844Z,1.90
2018-10-18T17:02:27.723Z,2.10
2018-10-18T17:04:56.723Z,1.90
2018-10-18T17:07:25.694Z,1.95
2018-10-18T17:09:54.687Z,2.20
2018-10-18T17:12:23.600Z,1.80
2018-10-18T17:14:52.601Z,1.67
2018-10-18T17:17:21.581Z,2.00
2018-10-18T17:19:50.605Z,1.63
2018-10-18T17:22:19.583Z,2.37
2018-10-18T17:24:48.643Z,1.83
2018-10-18T17:27:17.756Z,1.50
2018-10-18T17:29:46.520Z,2.00
2018-10-18T17:32:15.623Z,1.70
2018-10-18T17:34:44.424Z,1.70
2018-10-18T17:37:13.419Z,2.30
2018-10-18T17:39:42.365Z,1.90
2018-10-18T17:42:11.380Z,2.00
2018-10-18T17:44:40.271Z,1.63
2018-10-18T17:47:09.385Z,1.90
2018-10-18T17:49:38.281Z,1.97
2018-10-18T17:52:07.333Z,1.90
2018-10-18T17:54:36.230Z,1.80
2018-10-18T17:57:05.272Z,1.83
2018-10-18T17:59:34.276Z,2.00
2018-10-18T18:02:03.213Z,2.17
2018-10-18T18:04:32.129Z,1.90
2018-10-18T18:07:01.220Z,2.10
2018-10-18T18:09:30.123Z,1.90
2018-10-18T18:11:59.057Z,1.90
2018-10-18T18:14:28.001Z,2.00
2018-10-18T18:16:57.006Z,1.80
2018-10-18T18:19:25.995Z,2.00
2018-10-18T18:21:55.007Z,2.00
2018-10-18T18:24:23.955Z,2.03
2018-10-18T18:26:52.946Z,1.97
2018-10-18T18:29:21.880Z,1.90
2018-10-18T18:31:50.848Z,1.90
2018-10-18T18:34:19.798Z,1.90
2018-10-18T18:36:48.767Z,2.20
2018-10-18T18:39:17.739Z,2.07
2018-10-18T18:41:46.670Z,1.83
2018-10-18T18:44:15.684Z,2.20
2018-10-18T18:46:44.754Z,2.10
2018-10-18T18:49:13.670Z,2.03
2018-10-18T18:51:42.690Z,2.27
2018-10-18T18:54:11.606Z,1.80
2018-10-18T18:56:40.585Z,1.90
2018-10-18T18:59:09.532Z,2.10
2018-10-18T19:01:38.487Z,2.10
2018-10-18T19:04:07.598Z,2.13
2018-10-18T19:06:36.539Z,1.93
2018-10-18T19:09:07.278Z,2.20
2018-10-18T19:11:36.094Z,1.93
2018-10-18T19:14:05.495Z,1.80
2018-10-18T19:16:34.390Z,2.20
2018-10-18T19:19:03.655Z,1.90
2018-10-18T19:21:32.773Z,2.17
2018-10-18T19:24:01.767Z,1.80
2018-10-18T19:26:30.686Z,1.73
2018-10-18T19:28:59.652Z,2.00
2018-10-18T19:31:28.585Z,2.00
2018-10-18T19:33:57.587Z,2.00
2018-10-18T19:36:26.503Z,2.00
2018-10-18T19:38:55.442Z,2.30
2018-10-18T19:41:24.376Z,2.00
2018-10-18T19:43:53.374Z,2.30
2018-10-18T19:46:22.476Z,2.57
2018-10-18T19:48:51.243Z,2.13
2018-10-18T19:51:20.221Z,2.67
2018-10-18T19:53:49.176Z,1.93
2018-10-18T19:56:18.145Z,2.10
2018-10-18T19:58:47.125Z,2.17
2018-10-18T20:01:16.090Z,2.00
2018-10-18T20:03:45.053Z,2.50
2018-10-18T20:06:14.026Z,2.00
2018-10-18T20:08:43.028Z,2.30
2018-10-18T20:11:11.941Z,2.37
2018-10-18T20:13:40.880Z,2.50
2018-10-18T20:16:09.799Z,2.83
2018-10-18T20:18:38.849Z,2.27
2018-10-18T20:21:07.874Z,2.27
2018-10-18T20:23:36.777Z,2.10
2018-10-18T20:26:06.103Z,2.58
2018-10-18T20:28:34.686Z,2.20
2018-10-18T20:31:03.618Z,2.60
2018-10-18T20:33:32.555Z,2.40
2018-10-18T20:36:01.533Z,2.10
2018-10-18T20:38:30.428Z,2.62
2018-10-18T20:40:59.412Z,2.63
2018-10-18T20:43:28.308Z,2.80
2018-10-18T20:45:57.305Z,2.10
2018-10-18T20:48:26.232Z,2.23
2018-10-18T20:50:55.215Z,2.20
2018-10-18T20:53:24.196Z,2.30
2018-10-18T20:55:53.189Z,2.00
2018-10-18T20:58:22.242Z,2.70
2018-10-18T21:00:51.145Z,2.60
2018-10-18T21:03:20.066Z,2.30
2018-10-18T21:05:49.058Z,2.23
2018-10-18T21:08:17.991Z,2.20
2018-10-18T21:10:47.061Z,2.30
2018-10-18T21:13:16.014Z,2.50
2018-10-18T21:15:44.969Z,2.43
2018-10-18T21:18:14.024Z,2.40
2018-10-18T21:20:42.932Z,2.23
2018-10-18T21:23:12.119Z,2.37
2018-10-18T21:25:40.840Z,2.47
2018-10-18T21:28:09.830Z,2.03
2018-10-18T21:31:09.392Z,2.13
2018-10-18T21:33:38.396Z,2.47
2018-10-18T21:36:07.394Z,3.08
2018-10-18T21:38:36.396Z,2.50
2018-10-18T21:41:05.582Z,2.93
2018-10-18T21:43:34.513Z,2.70
2018-10-18T21:46:03.432Z,2.33
2018-10-18T21:48:32.801Z,2.47
2018-10-18T21:51:01.824Z,2.30
2018-10-18T21:53:30.748Z,2.60
2018-10-18T21:55:59.671Z,2.20
2018-10-18T21:58:28.642Z,2.67
2018-10-18T22:00:57.597Z,2.60
2018-10-18T22:03:26.528Z,2.80
2018-10-18T22:05:55.521Z,2.63
2018-10-18T22:08:24.510Z,3.30
2018-10-18T22:10:53.462Z,2.90
2018-10-18T22:13:22.443Z,2.50
2018-10-18T22:15:51.410Z,2.23
2018-10-18T22:18:20.379Z,2.40
2018-10-18T22:20:49.374Z,2.20
2018-10-18T22:23:18.327Z,2.85
2018-10-18T22:25:47.279Z,3.10
2018-10-18T22:28:16.277Z,2.23
2018-10-18T22:30:45.264Z,2.53
2018-10-18T22:33:14.354Z,2.57
2018-10-18T22:35:43.258Z,2.27
2018-10-18T22:38:12.222Z,2.47
2018-10-18T22:40:41.212Z,3.20
2018-10-18T22:43:10.240Z,3.05
2018-10-18T22:45:39.206Z,3.30
2018-10-18T22:48:08.219Z,2.50
2018-10-18T22:50:37.140Z,2.40
2018-10-18T22:53:06.158Z,2.40
2018-10-18T22:55:35.085Z,2.93
2018-10-18T22:58:04.089Z,2.60
2018-10-18T23:00:33.061Z,3.05
2018-10-18T23:03:02.149Z,2.80
2018-10-18T23:05:31.019Z,2.83
2018-10-18T23:08:00.000Z,2.73
2018-10-18T23:10:28.941Z,3.10
2018-10-18T23:12:57.934Z,3.00
2018-10-18T23:15:26.925Z,2.70
2018-10-18T23:17:55.904Z,2.97
2018-10-18T23:20:24.834Z,2.93
2018-10-18T23:22:53.801Z,2.77
2018-10-18T23:25:22.729Z,2.80
2018-10-18T23:27:51.670Z,2.80
2018-10-18T23:30:20.637Z,3.10
2018-10-18T23:32:49.598Z,3.50
2018-10-18T23:35:18.558Z,3.00
2018-10-18T23:37:47.473Z,2.70
2018-10-18T23:40:16.446Z,3.43
2018-10-18T23:42:45.398Z,2.90
2018-10-18T23:45:14.396Z,2.87
2018-10-18T23:47:43.332Z,3.30
2018-10-18T23:50:12.309Z,3.20
2018-10-18T23:52:41.222Z,2.83
2018-10-18T23:55:10.227Z,3.93
2018-10-18T23:57:39.133Z,2.60
